createdAt,value
2019-02-05T00:02:15.853Z,67.60
2019-02-05T00:04:45.494Z,67.89
2019-02-05T00:07:14.707Z,67.88
2019-02-05T00:09:43.889Z,67.25
2019-02-05T00:12:13.198Z,66.73
2019-02-05T00:14:42.380Z,66.97
2019-02-05T00:17:11.621Z,66.50
2019-02-05T00:19:40.797Z,66.07
2019-02-05T00:22:10.134Z,66.71
2019-02-05T00:24:39.340Z,66.95
2019-02-05T00:27:08.590Z,66.83
2019-02-05T00:29:37.795Z,66.80
2019-02-05T00:32:07.068Z,66.58
2019-02-05T00:34:36.249Z,66.89
2019-02-05T00:37:05.972Z,66.47
2019-02-05T00:42:07.953Z,66.11
2019-02-05T00:44:37.200Z,66.09
2019-02-05T00:47:06.380Z,66.07
2019-02-05T00:49:35.652Z,65.70
2019-02-05T00:52:04.868Z,66.15
2019-02-05T00:54:35.835Z,66.52
2019-02-05T00:57:05.498Z,66.51
2019-02-05T00:59:34.746Z,66.74
2019-02-05T01:02:04.401Z,66.71
2019-02-05T01:04:34.013Z,67.15
2019-02-05T01:07:03.207Z,66.82
2019-02-05T01:09:32.916Z,66.89
2019-02-05T01:12:41.601Z,67.22
2019-02-05T01:15:14.206Z,67.55
2019-02-05T01:17:43.413Z,67.15
2019-02-05T01:20:53.319Z,67.20
2019-02-05T01:23:22.577Z,67.51
2019-02-05T01:25:51.898Z,67.65
2019-02-05T01:28:21.100Z,67.55
2019-02-05T01:30:50.338Z,67.43
2019-02-05T01:33:19.521Z,67.53
2019-02-05T01:35:50.525Z,67.54
2019-02-05T01:38:19.714Z,67.65
2019-02-05T01:40:48.970Z,68.10
2019-02-05T01:43:18.178Z,68.29
2019-02-05T01:45:47.426Z,67.92
2019-02-05T01:48:16.607Z,67.87
2019-02-05T01:50:47.615Z,67.06
2019-02-05T01:53:16.800Z,67.66
2019-02-05T01:58:40.749Z,67.26
2019-02-05T02:01:10.039Z,67.75
2019-02-05T02:03:39.299Z,68.52
2019-02-05T02:06:08.495Z,68.76
2019-02-05T02:08:37.770Z,68.85
2019-02-05T02:11:06.965Z,68.74
2019-02-05T02:13:36.259Z,68.24
2019-02-05T02:16:05.927Z,68.08
2019-02-05T02:18:35.177Z,67.57
2019-02-05T02:21:04.734Z,68.06
2019-02-05T02:23:34.114Z,67.42
2019-02-05T02:26:03.303Z,67.91
2019-02-05T02:28:32.503Z,68.39
2019-02-05T02:31:03.479Z,68.18
2019-02-05T02:33:32.673Z,68.03
2019-02-05T02:36:01.896Z,67.68
2019-02-05T02:38:31.100Z,68.15
2019-02-05T02:41:00.347Z,67.64
2019-02-05T02:43:29.528Z,67.33
2019-02-05T02:45:58.950Z,67.79
2019-02-05T02:48:28.139Z,67.97
2019-02-05T02:50:57.383Z,67.84
2019-02-05T02:53:26.857Z,67.67
2019-02-05T02:55:56.470Z,67.88
2019-02-05T02:58:25.676Z,67.76
2019-02-05T03:00:55.028Z,67.64
2019-02-05T03:03:24.215Z,67.37
2019-02-05T03:05:53.410Z,67.13
2019-02-05T03:08:22.656Z,67.50
2019-02-05T03:10:51.951Z,67.81
2019-02-05T03:13:21.253Z,68.14
2019-02-05T03:15:50.448Z,67.89
2019-02-05T03:18:19.703Z,67.29
2019-02-05T03:20:48.898Z,67.00
2019-02-05T03:23:18.139Z,66.93
2019-02-05T03:25:47.331Z,66.62
2019-02-05T03:28:16.960Z,67.05
2019-02-05T03:30:46.151Z,65.78
2019-02-05T03:33:15.423Z,65.53
2019-02-05T03:35:44.593Z,65.68
2019-02-05T03:38:13.800Z,65.50
2019-02-05T03:41:03.121Z,65.62
2019-02-05T03:50:09.657Z,65.87
2019-02-05T03:53:21.715Z,65.69
2019-02-05T03:56:29.228Z,65.48
2019-02-05T03:59:50.726Z,65.82
2019-02-05T04:02:52.711Z,66.07
2019-02-05T04:06:00.041Z,66.62
2019-02-05T04:12:39.680Z,67.14
2019-02-05T04:18:51.295Z,67.35
2019-02-05T04:22:07.860Z,67.34
2019-02-05T04:25:15.159Z,66.98
2019-02-05T04:28:22.786Z,67.08
2019-02-05T04:31:30.036Z,67.24
2019-02-05T04:34:23.305Z,67.08
2019-02-05T04:37:30.560Z,67.46
2019-02-05T04:40:37.873Z,68.11
2019-02-05T04:43:21.046Z,68.33
2019-02-05T04:49:50.876Z,68.61
2019-02-05T04:52:58.874Z,68.72
2019-02-05T04:56:06.141Z,68.18
2019-02-05T04:59:13.939Z,68.59
2019-02-05T05:02:21.189Z,68.62
2019-02-05T05:08:45.884Z,68.30
2019-02-05T05:11:15.246Z,68.57
2019-02-05T05:13:44.538Z,68.77
2019-02-05T05:16:13.742Z,68.89
2019-02-05T05:18:42.993Z,68.95
2019-02-05T05:24:20.781Z,68.77
2019-02-05T05:27:29.370Z,68.77
2019-02-05T05:29:58.800Z,68.99
2019-02-05T05:32:28.360Z,69.17
2019-02-05T05:34:57.842Z,68.96
2019-02-05T05:37:27.089Z,68.94
2019-02-05T05:39:56.277Z,68.99
2019-02-05T05:42:27.243Z,69.01
2019-02-05T05:44:56.430Z,69.04
2019-02-05T05:47:25.978Z,69.28
2019-02-05T05:49:55.173Z,69.07
2019-02-05T05:52:24.405Z,68.65
2019-02-05T05:54:53.887Z,68.54
2019-02-05T05:57:23.129Z,68.79
2019-02-05T05:59:52.320Z,68.39
2019-02-05T06:02:21.985Z,67.80
2019-02-05T06:04:51.172Z,68.23
2019-02-05T06:07:20.413Z,68.12
2019-02-05T06:09:49.602Z,68.23
2019-02-05T06:12:18.887Z,67.68
2019-02-05T06:14:50.225Z,67.51
2019-02-05T06:17:19.470Z,67.94
2019-02-05T06:19:48.715Z,68.14
2019-02-05T06:22:17.948Z,67.99
2019-02-05T06:24:47.127Z,68.12
2019-02-05T06:27:16.369Z,67.99
2019-02-05T06:29:47.281Z,67.34
2019-02-05T06:32:16.529Z,67.15
2019-02-05T06:34:45.718Z,67.16
2019-02-05T06:37:15.239Z,67.20
2019-02-05T06:39:44.416Z,66.94
2019-02-05T06:42:13.670Z,66.90
2019-02-05T06:44:42.864Z,66.72
2019-02-05T06:47:12.052Z,66.83
2019-02-05T06:49:41.677Z,66.39
2019-02-05T06:52:10.945Z,66.48
2019-02-05T06:54:40.168Z,66.43
2019-02-05T06:57:09.365Z,66.68
2019-02-05T06:59:38.599Z,66.15
2019-02-05T07:02:48.894Z,65.99
2019-02-05T07:05:18.248Z,65.90
2019-02-05T07:07:47.539Z,65.65
2019-02-05T07:10:18.992Z,65.49
2019-02-05T07:12:48.227Z,65.49
2019-02-05T07:15:17.457Z,65.67
2019-02-05T07:17:49.925Z,65.66
2019-02-05T07:20:18.228Z,65.36
2019-02-05T07:22:47.445Z,65.42
2019-02-05T07:25:18.623Z,65.59
2019-02-05T07:27:48.151Z,65.75
2019-02-05T07:30:20.387Z,66.35
2019-02-05T07:32:49.672Z,66.19
2019-02-05T07:35:18.909Z,65.87
2019-02-05T07:38:27.493Z,65.67
2019-02-05T07:40:56.799Z,66.63
2019-02-05T07:43:26.003Z,65.71
2019-02-05T07:45:55.244Z,65.51
2019-02-05T07:48:24.815Z,65.62
2019-02-05T07:50:54.053Z,64.74
2019-02-05T07:53:23.243Z,64.47
2019-02-05T07:55:52.849Z,64.63
2019-02-05T07:58:22.043Z,63.99
2019-02-05T08:00:51.285Z,63.61
2019-02-05T08:03:20.471Z,63.84
2019-02-05T08:05:51.449Z,64.08
2019-02-05T08:08:20.635Z,63.75
2019-02-05T08:10:49.982Z,63.32
2019-02-05T08:13:19.228Z,62.94
2019-02-05T08:15:48.456Z,62.67
2019-02-05T08:18:17.641Z,62.94
2019-02-05T08:20:46.885Z,62.44
2019-02-05T08:23:16.069Z,62.53
2019-02-05T08:25:47.420Z,62.46
2019-02-05T08:28:16.599Z,62.39
2019-02-05T08:30:47.606Z,62.34
2019-02-05T08:33:16.790Z,62.05
2019-02-05T08:35:46.031Z,62.03
2019-02-05T08:38:15.238Z,62.57
2019-02-05T08:40:46.598Z,62.49
2019-02-05T08:43:16.106Z,62.30
2019-02-05T08:45:55.988Z,62.24
2019-02-05T08:48:16.702Z,62.35
2019-02-05T08:50:45.956Z,62.33
2019-02-05T08:53:15.182Z,62.45
2019-02-05T08:55:44.371Z,62.39
2019-02-05T08:58:13.617Z,61.90
2019-02-05T09:01:22.449Z,61.37
2019-02-05T09:03:51.651Z,61.36
2019-02-05T09:06:20.892Z,61.18
2019-02-05T09:08:50.177Z,61.19
2019-02-05T09:11:19.342Z,60.42
2019-02-05T09:13:48.970Z,60.23
2019-02-05T09:16:18.501Z,59.98
2019-02-05T09:18:47.744Z,59.84
2019-02-05T09:21:18.664Z,59.25
2019-02-05T09:23:48.014Z,58.59
2019-02-05T09:26:17.197Z,59.03
2019-02-05T09:28:46.437Z,59.94
2019-02-05T09:31:15.669Z,60.72
2019-02-05T09:33:45.625Z,59.65
2019-02-05T09:36:14.804Z,58.98
2019-02-05T09:38:44.057Z,58.15
2019-02-05T09:41:13.256Z,58.53
2019-02-05T09:43:42.439Z,58.36
2019-02-05T09:46:12.016Z,58.93
2019-02-05T09:48:41.205Z,58.46
2019-02-05T09:51:10.833Z,57.43
2019-02-05T09:53:41.743Z,56.80
2019-02-05T09:56:10.986Z,56.16
2019-02-05T09:58:40.171Z,55.92
2019-02-05T10:01:09.869Z,55.71
2019-02-05T10:03:39.057Z,55.84
2019-02-05T10:06:08.302Z,55.69
2019-02-05T10:08:37.482Z,56.39
2019-02-05T10:11:07.188Z,57.11
2019-02-05T10:13:36.540Z,57.37
2019-02-05T10:19:01.506Z,57.51
2019-02-05T10:21:32.419Z,57.17
2019-02-05T10:24:01.658Z,56.95
2019-02-05T10:26:30.840Z,57.42
2019-02-05T10:29:00.097Z,56.99
2019-02-05T10:31:29.309Z,56.15
2019-02-05T10:33:58.567Z,55.46
2019-02-05T10:36:29.480Z,55.39
2019-02-05T10:38:58.717Z,55.38
2019-02-05T10:41:28.257Z,54.88
2019-02-05T10:43:57.510Z,54.90
2019-02-05T10:46:26.702Z,54.97
2019-02-05T10:48:55.919Z,54.96
2019-02-05T10:51:25.172Z,55.03
2019-02-05T10:53:54.859Z,54.73
2019-02-05T10:56:24.114Z,54.65
2019-02-05T10:58:53.307Z,54.36
2019-02-05T11:01:22.542Z,54.42
2019-02-05T11:03:51.723Z,54.26
2019-02-05T11:06:20.960Z,54.55
2019-02-05T11:08:50.144Z,53.94
2019-02-05T11:11:19.370Z,54.16
2019-02-05T11:13:48.623Z,54.50
2019-02-05T11:16:17.871Z,54.72
2019-02-05T11:18:47.063Z,55.09
2019-02-05T11:21:16.288Z,55.63
2019-02-05T11:23:45.476Z,55.45
2019-02-05T11:26:16.453Z,55.22
2019-02-05T11:28:45.687Z,55.28
2019-02-05T11:31:15.283Z,55.53
2019-02-05T11:33:44.480Z,54.72
2019-02-05T11:36:13.730Z,55.03
2019-02-05T11:38:42.956Z,54.62
2019-02-05T11:41:13.749Z,54.64
2019-02-05T11:43:43.106Z,54.13
2019-02-05T11:46:12.370Z,54.01
2019-02-05T11:48:41.559Z,54.66
2019-02-05T11:51:10.757Z,54.48
2019-02-05T11:53:40.014Z,54.38
2019-02-05T11:56:09.203Z,54.48
2019-02-05T11:58:40.548Z,54.98
2019-02-05T12:01:38.357Z,54.32
2019-02-05T12:03:59.644Z,54.14
2019-02-05T12:06:28.834Z,53.64
2019-02-05T12:08:58.089Z,53.80
2019-02-05T12:11:27.445Z,54.20
2019-02-05T12:13:56.736Z,54.43
2019-02-05T12:16:25.914Z,54.24
2019-02-05T12:18:55.155Z,54.09
2019-02-05T12:21:24.330Z,53.88
2019-02-05T12:23:54.033Z,54.60
2019-02-05T12:26:23.231Z,54.46
2019-02-05T12:28:52.664Z,54.79
2019-02-05T12:31:21.847Z,55.35
2019-02-05T12:33:51.074Z,55.28
2019-02-05T12:36:20.267Z,55.39
2019-02-05T12:38:49.523Z,55.73
2019-02-05T12:41:18.709Z,55.59
2019-02-05T12:46:38.040Z,56.19
2019-02-05T12:49:07.267Z,56.28
2019-02-05T12:51:36.808Z,56.46
2019-02-05T12:54:06.095Z,56.63
2019-02-05T12:56:35.573Z,56.73
2019-02-05T13:02:13.573Z,56.60
2019-02-05T13:04:42.761Z,56.47
2019-02-05T13:07:12.100Z,56.60
2019-02-05T13:09:41.385Z,56.80
2019-02-05T13:12:10.747Z,56.38
2019-02-05T13:14:40.133Z,56.28
2019-02-05T13:17:09.372Z,56.19
2019-02-05T13:19:38.569Z,56.22
2019-02-05T13:22:07.928Z,56.22
2019-02-05T13:24:37.062Z,56.15
2019-02-05T13:27:06.536Z,55.85
2019-02-05T13:29:36.116Z,56.32
2019-02-05T13:32:07.136Z,56.16
2019-02-05T13:34:36.316Z,55.71
2019-02-05T13:37:45.288Z,56.07
2019-02-05T13:40:17.088Z,56.06
2019-02-05T13:42:46.396Z,55.53
2019-02-05T13:45:55.304Z,55.40
2019-02-05T13:48:24.540Z,54.95
2019-02-05T13:50:53.789Z,54.57
2019-02-05T13:53:23.106Z,55.11
2019-02-05T13:55:52.399Z,54.73
2019-02-05T13:58:21.657Z,54.97
2019-02-05T14:03:49.431Z,55.51
2019-02-05T14:06:18.616Z,55.60
2019-02-05T14:08:47.981Z,55.15
2019-02-05T14:11:17.116Z,54.37
2019-02-05T14:13:58.379Z,53.94
2019-02-05T14:16:27.566Z,53.65
2019-02-05T14:18:56.802Z,53.13
2019-02-05T14:21:25.980Z,52.61
2019-02-05T14:23:55.360Z,52.21
2019-02-05T14:26:24.545Z,51.91
2019-02-05T14:31:42.143Z,51.14
2019-02-05T14:34:13.430Z,50.75
2019-02-05T14:36:42.613Z,51.50
2019-02-05T14:39:12.237Z,51.89
2019-02-05T14:41:41.744Z,52.30
2019-02-05T14:44:11.254Z,52.70
2019-02-05T14:46:40.529Z,52.95
2019-02-05T14:49:11.412Z,53.42
2019-02-05T14:51:40.654Z,53.71
2019-02-05T14:54:09.831Z,54.14
2019-02-05T14:56:39.086Z,52.60
2019-02-05T14:59:47.726Z,51.40
2019-02-05T15:02:16.916Z,48.29
2019-02-05T15:04:46.174Z,44.92
2019-02-05T15:07:15.365Z,43.05
2019-02-05T15:09:44.931Z,43.90
2019-02-05T15:12:14.539Z,45.04
2019-02-05T15:17:31.987Z,46.93
2019-02-05T15:20:01.465Z,46.77
2019-02-05T15:22:30.696Z,45.03
2019-02-05T15:25:02.236Z,43.60
2019-02-05T15:27:31.478Z,42.33
2019-02-05T15:30:00.659Z,43.86
2019-02-05T15:32:49.156Z,45.96
2019-02-05T15:35:19.817Z,48.35
2019-02-05T15:37:49.060Z,50.48
2019-02-05T15:40:18.719Z,51.99
2019-02-05T15:42:47.958Z,53.33
2019-02-05T15:45:17.586Z,54.22
2019-02-05T15:47:46.962Z,55.18
2019-02-05T15:50:16.361Z,56.00
2019-02-05T15:52:45.622Z,56.93
2019-02-05T15:55:54.196Z,57.89
2019-02-05T15:58:23.457Z,58.45
2019-02-05T16:00:52.965Z,58.73
2019-02-05T16:03:22.218Z,58.99
2019-02-05T16:05:51.400Z,59.13
2019-02-05T16:08:22.361Z,59.64
2019-02-05T16:10:51.557Z,60.01
2019-02-05T16:13:20.910Z,60.40
2019-02-05T16:15:50.153Z,60.50
2019-02-05T16:18:19.332Z,60.86
2019-02-05T16:20:48.623Z,61.15
2019-02-05T16:23:19.956Z,61.14
2019-02-05T16:25:49.192Z,61.33
2019-02-05T16:28:18.374Z,61.64
2019-02-05T16:30:47.622Z,61.56
2019-02-05T16:33:16.921Z,61.78
2019-02-05T16:35:46.145Z,62.11
2019-02-05T16:38:15.893Z,62.16
2019-02-05T16:40:45.146Z,62.62
2019-02-05T16:43:14.344Z,62.41
2019-02-05T16:45:43.595Z,62.61
2019-02-05T16:48:12.898Z,62.60
2019-02-05T16:50:44.461Z,62.76
2019-02-05T16:53:15.440Z,62.93
2019-02-05T16:55:44.666Z,63.14
2019-02-05T16:58:13.888Z,62.88
2019-02-05T17:00:43.147Z,62.70
2019-02-05T17:03:12.782Z,63.18
2019-02-05T17:05:42.088Z,63.16
2019-02-05T17:08:11.584Z,63.55
2019-02-05T17:10:40.823Z,63.49
2019-02-05T17:13:11.736Z,63.72
2019-02-05T17:15:41.156Z,63.73
2019-02-05T17:18:10.402Z,63.79
2019-02-05T17:20:39.745Z,64.05
2019-02-05T17:23:10.986Z,64.12
2019-02-05T17:25:40.273Z,64.21
2019-02-05T17:28:09.741Z,64.27
2019-02-05T17:30:39.631Z,64.44
2019-02-05T17:33:08.986Z,64.62
2019-02-05T17:35:38.169Z,64.69
2019-02-05T17:38:09.018Z,64.92
2019-02-05T17:43:50.271Z,64.83
2019-02-05T17:46:18.074Z,64.93
2019-02-05T17:48:47.588Z,64.96
2019-02-05T17:51:16.773Z,64.97
2019-02-05T17:53:46.027Z,65.14
2019-02-05T17:56:15.226Z,65.24
2019-02-05T17:58:46.331Z,65.08
2019-02-05T18:01:17.402Z,65.20
2019-02-05T18:03:46.990Z,65.14
2019-02-05T18:06:16.169Z,65.32
2019-02-05T18:08:45.416Z,65.45
2019-02-05T18:11:14.601Z,65.35
2019-02-05T18:13:44.076Z,65.80
2019-02-05T18:16:16.389Z,65.75
2019-02-05T18:18:45.639Z,65.83
2019-02-05T18:21:14.865Z,65.61
2019-02-05T18:23:44.037Z,65.53
2019-02-05T18:26:13.351Z,65.73
2019-02-05T18:28:42.529Z,65.84
2019-02-05T18:31:11.866Z,65.57
2019-02-05T18:33:41.276Z,65.66
2019-02-05T18:36:10.535Z,65.63
2019-02-05T18:38:40.100Z,65.83
2019-02-05T18:41:28.490Z,65.71
2019-02-05T18:43:57.738Z,65.66
2019-02-05T18:46:27.009Z,65.91
2019-02-05T18:49:04.700Z,65.84
2019-02-05T18:51:27.444Z,66.15
2019-02-05T18:53:58.417Z,65.78
2019-02-05T18:56:27.596Z,65.62
2019-02-05T18:58:56.851Z,65.85
2019-02-05T19:01:26.038Z,65.78
2019-02-05T19:03:55.311Z,65.62
2019-02-05T19:06:24.566Z,66.11
2019-02-05T19:08:55.959Z,65.64
2019-02-05T19:11:25.164Z,65.68
2019-02-05T19:13:54.544Z,65.47
2019-02-05T19:16:23.866Z,65.49
2019-02-05T19:18:53.177Z,65.76
2019-02-05T19:21:22.488Z,66.01
2019-02-05T19:27:04.739Z,66.17
2019-02-05T19:29:34.366Z,66.16
2019-02-05T19:32:03.705Z,66.25
2019-02-05T19:34:32.909Z,66.41
2019-02-05T19:39:57.131Z,66.50
2019-02-05T19:42:26.328Z,66.25
2019-02-05T19:47:39.323Z,66.30
2019-02-05T19:50:09.930Z,66.33
2019-02-05T19:52:39.404Z,66.19
2019-02-05T19:55:08.706Z,66.14
2019-02-05T19:57:39.742Z,66.26
2019-02-05T20:00:12.196Z,66.36
2019-02-05T20:02:41.390Z,66.41
2019-02-05T20:08:06.360Z,66.25
2019-02-05T20:10:36.245Z,66.29
2019-02-05T20:13:45.152Z,66.40
2019-02-05T20:16:14.600Z,66.25
2019-02-05T20:18:44.291Z,66.01
2019-02-05T20:21:13.536Z,65.87
2019-02-05T20:23:43.222Z,66.02
2019-02-05T20:26:12.542Z,65.92
2019-02-05T20:28:42.194Z,66.06
2019-02-05T20:31:11.910Z,66.25
2019-02-05T20:33:49.717Z,66.07
2019-02-05T20:36:12.131Z,65.90
2019-02-05T20:38:41.438Z,66.23
2019-02-05T20:41:11.423Z,66.29
2019-02-05T20:43:42.307Z,67.01
2019-02-05T20:46:11.968Z,67.93
2019-02-05T20:48:41.244Z,68.61
2019-02-05T20:51:10.529Z,68.79
2019-02-05T20:53:39.735Z,69.11
2019-02-05T20:56:08.998Z,68.58
2019-02-05T20:58:38.322Z,68.08
2019-02-05T21:01:07.574Z,67.78
2019-02-05T21:03:36.762Z,67.63
2019-02-05T21:06:45.384Z,67.40
2019-02-05T21:09:19.287Z,67.25
2019-02-05T21:11:48.977Z,67.22
2019-02-05T21:14:18.993Z,67.22
2019-02-05T21:16:48.153Z,67.21
2019-02-05T21:19:17.394Z,67.21
2019-02-05T21:21:46.615Z,66.85
2019-02-05T21:24:15.858Z,66.60
2019-02-05T21:26:45.157Z,66.74
2019-02-05T21:29:14.390Z,66.45
2019-02-05T21:31:43.586Z,66.35
2019-02-05T21:34:15.988Z,66.59
2019-02-05T21:36:43.739Z,66.68
2019-02-05T21:40:02.090Z,66.99
2019-02-05T21:42:23.678Z,66.92
2019-02-05T21:44:54.639Z,66.66
2019-02-05T21:47:23.827Z,66.57
2019-02-05T21:49:53.062Z,66.57
2019-02-05T21:52:22.248Z,66.12
2019-02-05T21:54:51.489Z,66.32
2019-02-05T21:57:20.677Z,66.25
2019-02-05T21:59:49.939Z,66.55
2019-02-05T22:02:19.150Z,66.64
2019-02-05T22:04:48.406Z,66.42
2019-02-05T22:07:17.651Z,67.15
2019-02-05T22:09:46.840Z,66.98
2019-02-05T22:12:16.092Z,67.54
2019-02-05T22:14:45.333Z,68.55
2019-02-05T22:17:18.280Z,69.28
2019-02-05T22:19:47.215Z,69.82
2019-02-05T22:22:16.453Z,70.79
2019-02-05T22:24:46.012Z,71.46
2019-02-05T22:27:16.988Z,70.63
2019-02-05T22:29:46.176Z,70.73
2019-02-05T22:32:15.433Z,70.22
2019-02-05T22:34:44.639Z,69.63
2019-02-05T22:37:13.845Z,69.45
2019-02-05T22:39:45.133Z,69.31
2019-02-05T22:42:14.332Z,69.73
2019-02-05T22:44:45.310Z,69.33
2019-02-05T22:47:14.493Z,69.51
2019-02-05T22:49:43.737Z,69.78
2019-02-05T22:52:12.939Z,69.31
2019-02-05T22:54:42.181Z,68.58
2019-02-05T22:57:11.377Z,69.34
2019-02-05T22:59:42.331Z,70.43
2019-02-05T23:02:11.651Z,70.96
2019-02-05T23:05:18.968Z,70.81
2019-02-05T23:07:48.527Z,70.06
2019-02-05T23:10:48.605Z,70.18
2019-02-05T23:13:19.693Z,70.61
2019-02-05T23:15:50.380Z,71.33
2019-02-05T23:18:19.795Z,71.18
2019-02-05T23:23:24.236Z,71.94
2019-02-05T23:25:53.490Z,71.12
2019-02-05T23:28:22.679Z,70.73
2019-02-05T23:30:54.005Z,70.68
2019-02-05T23:33:23.193Z,70.69
2019-02-05T23:36:31.966Z,69.91
2019-02-05T23:39:01.151Z,69.34
2019-02-05T23:41:30.732Z,69.15
2019-02-05T23:44:00.006Z,68.24
2019-02-05T23:46:29.198Z,68.15
2019-02-05T23:48:58.937Z,67.89
2019-02-05T23:51:28.133Z,67.86
2019-02-05T23:53:57.365Z,67.29
2019-02-05T23:56:26.566Z,67.24
2019-02-05T23:58:56.142Z,68.05
